createdAt,value
2019-05-25T00:02:49.282Z,98.90
2019-05-25T00:05:50.695Z,98.70
2019-05-25T00:08:51.968Z,98.70
2019-05-25T00:11:53.218Z,98.80
2019-05-25T00:14:54.464Z,98.80
2019-05-25T00:17:55.818Z,99.30
2019-05-25T00:20:57.069Z,99.20
2019-05-25T00:24:11.259Z,99.00
2019-05-25T00:27:01.624Z,99.10
2019-05-25T00:30:04.940Z,99.00
2019-05-25T00:33:06.496Z,99.10
2019-05-25T00:36:07.744Z,99.00
2019-05-25T00:39:09.189Z,99.20
2019-05-25T00:42:10.448Z,99.10
2019-05-25T00:45:13.777Z,99.20
2019-05-25T00:48:15.522Z,99.00
2019-05-25T00:51:16.800Z,99.10
2019-05-25T00:54:27.393Z,98.90
2019-05-25T00:57:21.212Z,99.30
2019-05-25T01:00:22.438Z,99.00
2019-05-25T01:03:23.940Z,99.00
2019-05-25T01:06:25.266Z,99.10
2019-05-25T01:09:26.772Z,98.80
2019-05-25T01:12:28.012Z,99.00
2019-05-25T01:15:29.260Z,99.10
2019-05-25T01:18:31.098Z,98.90
2019-05-25T01:21:32.342Z,99.00
2019-05-25T01:24:43.931Z,98.90
2019-05-25T01:27:36.809Z,98.70
2019-05-25T01:30:38.357Z,99.00
2019-05-25T01:33:39.584Z,98.70
2019-05-25T01:36:41.515Z,98.60
2019-05-25T01:39:42.730Z,98.50
2019-05-25T01:42:44.204Z,98.70
2019-05-25T01:45:46.695Z,98.70
2019-05-25T01:48:48.129Z,98.70
2019-05-25T01:51:49.365Z,98.70
2019-05-25T01:54:59.493Z,98.50
2019-05-25T01:57:53.774Z,98.20
2019-05-25T02:00:55.320Z,98.60
2019-05-25T02:03:56.557Z,98.60
2019-05-25T02:06:57.946Z,98.80
2019-05-25T02:09:59.180Z,98.60
2019-05-25T02:13:00.571Z,98.60
2019-05-25T02:16:01.794Z,98.70
2019-05-25T02:19:03.263Z,98.70
2019-05-25T02:22:04.494Z,98.90
2019-05-25T02:25:16.914Z,98.30
2019-05-25T02:28:08.794Z,98.40
2019-05-25T02:31:10.284Z,98.10
2019-05-25T02:34:11.517Z,98.20
2019-05-25T02:37:12.881Z,98.20
2019-05-25T02:40:14.165Z,98.20
2019-05-25T02:43:15.734Z,98.40
2019-05-25T02:46:17.001Z,98.30
2019-05-25T02:49:18.451Z,98.10
2019-05-25T02:52:19.685Z,98.00
2019-05-25T02:55:33.756Z,97.60
2019-05-25T02:58:24.153Z,97.70
2019-05-25T03:01:25.595Z,97.70
2019-05-25T03:04:26.829Z,97.60
2019-05-25T03:07:28.269Z,98.00
2019-05-25T03:10:29.750Z,98.10
2019-05-25T03:13:31.428Z,98.10
2019-05-25T03:16:33.115Z,98.10
2019-05-25T03:19:34.584Z,98.20
2019-05-25T03:22:35.810Z,98.20
2019-05-25T03:25:49.148Z,98.30
2019-05-25T03:28:40.613Z,98.40
2019-05-25T03:31:41.861Z,98.50
2019-05-25T03:34:43.117Z,98.50
2019-05-25T03:37:44.369Z,98.40
2019-05-25T03:40:45.781Z,98.50
2019-05-25T03:43:47.023Z,98.10
2019-05-25T03:46:49.118Z,98.30
2019-05-25T03:49:50.496Z,97.80
2019-05-25T03:52:51.745Z,98.30
2019-05-25T03:56:05.324Z,97.60
2019-05-25T03:58:56.557Z,97.30
2019-05-25T04:01:57.915Z,97.10
2019-05-25T04:04:59.264Z,96.90
2019-05-25T04:08:01.079Z,96.90
2019-05-25T04:11:02.325Z,96.70
2019-05-25T04:14:03.770Z,97.00
2019-05-25T04:17:05.015Z,96.60
2019-05-25T04:20:06.267Z,96.40
2019-05-25T04:23:07.946Z,96.60
2019-05-25T04:26:22.219Z,96.10
2019-05-25T04:29:12.354Z,96.40
2019-05-25T04:32:13.625Z,96.50
2019-05-25T04:35:15.088Z,96.30
2019-05-25T04:38:17.026Z,96.00
2019-05-25T04:41:19.096Z,95.90
2019-05-25T04:44:20.300Z,95.40
2019-05-25T04:47:26.890Z,94.40
2019-05-25T04:50:25.895Z,94.60
2019-05-25T04:53:27.325Z,93.90
2019-05-25T04:56:38.701Z,93.40
2019-05-25T04:59:33.956Z,93.20
2019-05-25T05:02:36.013Z,93.00
2019-05-25T05:05:38.797Z,93.00
2019-05-25T05:08:40.351Z,92.60
2019-05-25T05:11:42.560Z,92.50
2019-05-25T05:14:44.788Z,92.50
2019-05-25T05:17:48.276Z,91.50
2019-05-25T05:20:50.120Z,92.10
2019-05-25T05:23:51.891Z,91.50
2019-05-25T05:26:56.185Z,91.50
2019-05-25T05:29:58.297Z,90.80
2019-05-25T05:33:00.342Z,90.60
2019-05-25T05:36:03.431Z,91.10
2019-05-25T05:39:09.377Z,90.50
2019-05-25T05:42:12.959Z,91.20
2019-05-25T05:45:15.643Z,90.40
2019-05-25T05:48:17.590Z,90.90
2019-05-25T05:51:20.187Z,90.60
2019-05-25T05:54:21.952Z,89.10
2019-05-25T05:57:23.780Z,89.80
2019-05-25T06:00:26.309Z,89.60
2019-05-25T06:03:29.644Z,88.00
2019-05-25T06:06:32.597Z,88.50
2019-05-25T06:09:34.042Z,89.90
2019-05-25T06:12:36.291Z,88.30
2019-05-25T06:15:37.759Z,88.20
2019-05-25T06:18:39.022Z,88.00
2019-05-25T06:21:40.632Z,87.80
2019-05-25T06:24:42.976Z,88.80
2019-05-25T06:27:44.251Z,87.70
2019-05-25T06:30:46.192Z,87.10
2019-05-25T06:33:47.789Z,87.60
2019-05-25T06:36:49.366Z,86.60
2019-05-25T06:39:51.625Z,85.20
2019-05-25T06:42:55.421Z,85.60
2019-05-25T06:46:01.129Z,83.60
2019-05-25T06:49:02.723Z,82.00
2019-05-25T06:52:05.234Z,80.60
2019-05-25T06:55:11.433Z,80.40
2019-05-25T06:58:15.592Z,80.40
2019-05-25T07:01:18.145Z,76.70
2019-05-25T07:04:19.992Z,74.50
2019-05-25T07:07:22.982Z,74.00
2019-05-25T07:10:24.270Z,69.40
2019-05-25T07:13:28.627Z,72.40
2019-05-25T07:16:32.080Z,66.20
2019-05-25T07:19:35.805Z,67.70
2019-05-25T07:22:38.024Z,70.90
2019-05-25T07:25:39.366Z,68.10
2019-05-25T07:28:40.905Z,68.30
2019-05-25T07:31:45.758Z,68.60
2019-05-25T07:34:48.448Z,64.40
2019-05-25T07:37:50.461Z,66.80
2019-05-25T07:40:52.031Z,66.50
2019-05-25T07:43:55.798Z,68.30
2019-05-25T07:46:57.518Z,67.40
2019-05-25T07:49:59.835Z,70.60
2019-05-25T07:53:01.822Z,63.90
2019-05-25T07:56:03.460Z,66.30
2019-05-25T07:59:05.014Z,65.40
2019-05-25T08:02:06.426Z,65.00
2019-05-25T08:05:07.668Z,64.90
2019-05-25T08:08:09.837Z,66.80
2019-05-25T08:11:11.369Z,65.70
2019-05-25T08:14:12.652Z,64.50
2019-05-25T08:17:14.406Z,65.70
2019-05-25T08:20:16.512Z,60.80
2019-05-25T08:23:19.812Z,63.20
2019-05-25T08:26:23.582Z,60.00
2019-05-25T08:29:25.967Z,63.90
2019-05-25T08:32:28.736Z,63.90
2019-05-25T08:35:30.518Z,64.20
2019-05-25T08:38:32.187Z,61.60
2019-05-25T08:41:34.667Z,63.20
2019-05-25T08:44:37.281Z,61.40
2019-05-25T08:47:38.917Z,61.20
2019-05-25T08:50:41.559Z,63.10
2019-05-25T08:53:46.698Z,58.20
2019-05-25T08:56:48.410Z,62.40
2019-05-25T08:59:49.670Z,56.50
2019-05-25T09:02:52.137Z,56.20
2019-05-25T09:05:53.759Z,58.30
2019-05-25T09:08:55.947Z,56.50
2019-05-25T09:11:58.033Z,57.60
2019-05-25T09:14:59.917Z,59.50
2019-05-25T09:18:02.033Z,58.40
2019-05-25T09:21:03.264Z,57.60
2019-05-25T09:24:04.803Z,56.80
2019-05-25T09:27:06.323Z,57.70
2019-05-25T09:30:11.542Z,55.70
2019-05-25T09:33:12.890Z,57.60
2019-05-25T09:36:14.503Z,57.10
2019-05-25T09:39:16.229Z,57.20
2019-05-25T09:42:18.169Z,56.30
2019-05-25T09:45:20.775Z,53.00
2019-05-25T09:48:21.999Z,54.60
2019-05-25T09:51:23.524Z,57.20
2019-05-25T09:54:25.389Z,52.80
2019-05-25T09:57:26.919Z,53.00
2019-05-25T10:00:28.729Z,51.50
2019-05-25T10:03:30.106Z,54.50
2019-05-25T10:06:31.538Z,50.70
2019-05-25T10:09:32.802Z,50.80
2019-05-25T10:12:34.922Z,51.20
2019-05-25T10:15:36.167Z,51.90
2019-05-25T10:18:37.437Z,52.60
2019-05-25T10:21:38.777Z,54.40
2019-05-25T10:24:40.030Z,53.30
2019-05-25T10:27:41.276Z,52.30
2019-05-25T10:30:42.569Z,50.40
2019-05-25T10:33:44.007Z,52.20
2019-05-25T10:36:45.267Z,51.40
2019-05-25T10:39:46.530Z,52.70
2019-05-25T10:42:48.150Z,50.80
2019-05-25T10:45:49.908Z,48.30
2019-05-25T10:48:51.618Z,50.40
2019-05-25T10:51:53.247Z,49.50
2019-05-25T10:54:54.482Z,51.70
2019-05-25T10:57:55.745Z,49.40
2019-05-25T11:00:56.978Z,49.80
2019-05-25T11:03:58.246Z,51.80
2019-05-25T11:06:59.771Z,51.10
2019-05-25T11:10:01.275Z,48.20
2019-05-25T11:13:02.769Z,50.50
2019-05-25T11:16:06.530Z,46.60
2019-05-25T11:19:07.773Z,48.00
2019-05-25T11:22:09.251Z,50.30
2019-05-25T11:25:10.501Z,47.20
2019-05-25T11:28:11.794Z,46.20
2019-05-25T11:31:13.245Z,46.80
2019-05-25T11:34:15.072Z,49.50
2019-05-25T11:37:16.310Z,45.40
2019-05-25T11:40:17.588Z,41.70
2019-05-25T11:43:19.777Z,39.00
2019-05-25T11:46:21.342Z,39.50
2019-05-25T11:49:23.622Z,38.90
2019-05-25T11:52:27.927Z,38.30
2019-05-25T11:55:29.243Z,35.50
2019-05-25T11:58:30.615Z,35.50
2019-05-25T12:01:31.855Z,35.20
2019-05-25T12:04:33.752Z,33.10
2019-05-25T12:07:35.015Z,37.30
2019-05-25T12:10:36.937Z,34.60
2019-05-25T12:13:38.182Z,32.40
2019-05-25T12:16:41.127Z,35.60
2019-05-25T12:19:42.775Z,30.50
2019-05-25T12:22:44.256Z,33.30
2019-05-25T12:25:45.471Z,33.80
2019-05-25T12:28:47.351Z,31.20
2019-05-25T12:31:48.803Z,29.50
2019-05-25T12:34:50.363Z,28.50
2019-05-25T12:37:51.615Z,29.40
2019-05-25T12:40:54.228Z,30.60
2019-05-25T12:43:55.707Z,30.90
2019-05-25T12:46:57.397Z,30.00
2019-05-25T12:49:59.753Z,31.70
2019-05-25T12:53:02.346Z,31.00
2019-05-25T12:56:03.577Z,30.00
2019-05-25T12:59:04.911Z,31.40
2019-05-25T13:02:06.366Z,28.40
2019-05-25T13:05:07.732Z,27.70
2019-05-25T13:08:08.955Z,29.00
2019-05-25T13:11:10.837Z,27.80
2019-05-25T13:14:14.943Z,29.50
2019-05-25T13:17:16.126Z,29.30
2019-05-25T13:20:17.425Z,29.90
2019-05-25T13:23:19.961Z,30.00
2019-05-25T13:26:22.971Z,30.30
2019-05-25T13:29:25.005Z,29.70
2019-05-25T13:32:26.255Z,29.80
2019-05-25T13:35:28.496Z,29.40
2019-05-25T13:38:30.193Z,29.40
2019-05-25T13:41:31.649Z,27.30
2019-05-25T13:44:33.394Z,27.90
2019-05-25T13:47:35.492Z,28.50
2019-05-25T13:50:37.090Z,32.20
2019-05-25T13:53:38.966Z,29.30
2019-05-25T13:56:40.346Z,29.50
2019-05-25T13:59:41.998Z,29.30
2019-05-25T14:02:43.752Z,29.70
2019-05-25T14:05:45.210Z,28.40
2019-05-25T14:08:46.903Z,31.70
2019-05-25T14:11:48.187Z,31.70
2019-05-25T14:14:49.410Z,29.10
2019-05-25T14:17:51.873Z,30.00
2019-05-25T14:20:53.460Z,29.20
2019-05-25T14:23:55.123Z,28.90
2019-05-25T14:26:56.384Z,29.50
2019-05-25T14:29:58.017Z,29.90
2019-05-25T14:32:59.661Z,33.70
2019-05-25T14:36:01.246Z,31.80
2019-05-25T14:39:06.407Z,29.00
2019-05-25T14:42:07.722Z,29.00
2019-05-25T14:45:10.183Z,29.30
2019-05-25T14:48:11.414Z,29.20
2019-05-25T14:51:13.249Z,29.90
2019-05-25T14:54:15.337Z,28.30
2019-05-25T14:57:17.069Z,29.80
2019-05-25T15:00:18.684Z,27.80
2019-05-25T15:03:20.160Z,27.80
2019-05-25T15:06:21.977Z,26.50
2019-05-25T15:09:23.408Z,26.40
2019-05-25T15:12:25.037Z,28.20
2019-05-25T15:15:27.706Z,26.70
2019-05-25T15:18:31.338Z,28.20
2019-05-25T15:21:32.957Z,25.70
2019-05-25T15:24:35.203Z,26.60
2019-05-25T15:27:37.069Z,25.00
2019-05-25T15:30:38.607Z,23.80
2019-05-25T15:33:42.950Z,25.10
2019-05-25T15:36:45.968Z,25.20
2019-05-25T15:39:47.786Z,24.90
2019-05-25T15:42:49.046Z,24.40
2019-05-25T15:45:50.989Z,24.30
2019-05-25T15:48:52.387Z,25.90
2019-05-25T15:51:54.812Z,23.90
2019-05-25T15:54:57.109Z,24.00
2019-05-25T15:57:59.511Z,24.80
2019-05-25T16:01:03.785Z,26.00
2019-05-25T16:04:07.088Z,25.40
2019-05-25T16:07:08.399Z,27.60
2019-05-25T16:10:10.095Z,27.90
2019-05-25T16:13:12.165Z,28.50
2019-05-25T16:16:13.732Z,28.90
2019-05-25T16:19:17.853Z,31.60
2019-05-25T16:22:19.566Z,35.80
2019-05-25T16:25:21.705Z,36.70
2019-05-25T16:28:24.067Z,35.80
2019-05-25T16:31:25.369Z,35.80
2019-05-25T16:34:27.489Z,41.50
2019-05-25T16:37:30.023Z,37.90
2019-05-25T16:40:31.319Z,45.20
2019-05-25T16:43:32.554Z,43.00
2019-05-25T16:46:34.554Z,47.40
2019-05-25T16:49:36.418Z,46.90
2019-05-25T16:52:37.793Z,49.80
2019-05-25T16:55:39.258Z,50.70
2019-05-25T16:58:41.208Z,52.70
2019-05-25T17:01:48.341Z,54.60
2019-05-25T17:04:46.188Z,55.40
2019-05-25T17:07:47.635Z,58.30
2019-05-25T17:10:50.316Z,57.30
2019-05-25T17:13:51.933Z,58.50
2019-05-25T17:16:53.187Z,59.60
2019-05-25T17:19:56.897Z,59.90
2019-05-25T17:22:58.247Z,59.80
2019-05-25T17:26:00.173Z,60.40
2019-05-25T17:29:02.800Z,60.10
2019-05-25T17:32:04.549Z,63.90
2019-05-25T17:35:06.426Z,61.30
2019-05-25T17:38:07.883Z,65.00
2019-05-25T17:41:10.090Z,64.70
2019-05-25T17:44:12.111Z,63.40
2019-05-25T17:47:13.631Z,58.80
2019-05-25T17:50:15.671Z,58.60
2019-05-25T17:53:17.612Z,58.50
2019-05-25T17:56:19.001Z,59.60
2019-05-25T17:59:20.279Z,57.40
2019-05-25T18:02:21.695Z,58.00
2019-05-25T18:05:22.930Z,59.20
2019-05-25T18:08:24.315Z,61.40
2019-05-25T18:11:25.587Z,62.00
2019-05-25T18:14:27.439Z,61.20
2019-05-25T18:17:28.695Z,63.40
2019-05-25T18:20:31.082Z,66.50
2019-05-25T18:23:32.380Z,68.10
2019-05-25T18:26:34.090Z,70.00
2019-05-25T18:29:35.484Z,70.60
2019-05-25T18:32:36.737Z,72.40
2019-05-25T18:35:38.866Z,73.20
2019-05-25T18:38:40.169Z,74.20
2019-05-25T18:41:41.668Z,75.70
2019-05-25T18:44:45.822Z,77.20
2019-05-25T18:47:47.828Z,78.20
2019-05-25T18:50:49.493Z,80.00
2019-05-25T18:53:51.390Z,81.40
2019-05-25T18:56:52.799Z,82.40
2019-05-25T18:59:54.068Z,83.70
2019-05-25T19:02:55.653Z,84.60
2019-05-25T19:05:57.321Z,85.60
2019-05-25T19:08:59.407Z,87.10
2019-05-25T19:12:01.608Z,85.50
2019-05-25T19:15:08.093Z,88.00
2019-05-25T19:18:12.264Z,88.50
2019-05-25T19:21:15.431Z,89.70
2019-05-25T19:24:16.959Z,90.30
2019-05-25T19:27:21.575Z,90.80
2019-05-25T19:30:23.346Z,90.70
2019-05-25T19:33:25.388Z,91.20
2019-05-25T19:36:27.757Z,91.20
2019-05-25T19:39:30.645Z,91.80
2019-05-25T19:42:32.605Z,92.00
2019-05-25T19:45:34.750Z,92.40
2019-05-25T19:48:35.980Z,92.40
2019-05-25T19:51:37.811Z,92.60
2019-05-25T19:54:39.563Z,92.80
2019-05-25T19:57:44.486Z,93.10
2019-05-25T20:00:44.351Z,93.50
2019-05-25T20:03:45.706Z,93.50
2019-05-25T20:06:47.649Z,93.70
2019-05-25T20:09:49.209Z,94.20
2019-05-25T20:12:51.931Z,94.40
2019-05-25T20:15:53.206Z,94.80
2019-05-25T20:18:54.850Z,95.10
2019-05-25T20:21:59.450Z,95.20
2019-05-25T20:25:01.798Z,94.70
2019-05-25T20:28:03.636Z,95.40
2019-05-25T20:31:05.345Z,95.90
2019-05-25T20:34:06.862Z,96.20
2019-05-25T20:37:08.708Z,96.00
2019-05-25T20:40:10.542Z,95.00
2019-05-25T20:43:12.472Z,96.10
2019-05-25T20:46:14.198Z,95.50
2019-05-25T20:49:15.421Z,96.00
2019-05-25T20:52:17.313Z,95.90
2019-05-25T20:55:18.579Z,96.00
2019-05-25T20:58:20.176Z,96.20
2019-05-25T21:01:21.441Z,96.20
2019-05-25T21:04:24.098Z,95.90
2019-05-25T21:07:26.556Z,95.40
2019-05-25T21:10:28.458Z,94.40
2019-05-25T21:13:29.778Z,94.80
2019-05-25T21:16:31.936Z,94.50
2019-05-25T21:19:33.381Z,94.20
2019-05-25T21:22:35.954Z,94.60
2019-05-25T21:25:37.209Z,95.00
2019-05-25T21:28:38.643Z,95.50
2019-05-25T21:31:39.992Z,95.70
2019-05-25T21:34:41.556Z,96.10
2019-05-25T21:37:43.034Z,96.50
2019-05-25T21:40:44.330Z,97.00
2019-05-25T21:43:46.031Z,97.30
2019-05-25T21:46:47.273Z,97.60
2019-05-25T21:49:48.784Z,97.60
2019-05-25T21:52:50.057Z,97.60
2019-05-25T21:55:51.315Z,97.80
2019-05-25T21:58:52.554Z,98.10
2019-05-25T22:01:54.015Z,98.30
2019-05-25T22:04:55.344Z,98.50
2019-05-25T22:07:56.773Z,98.60
2019-05-25T22:10:58.023Z,98.70
2019-05-25T22:13:59.426Z,98.70
2019-05-25T22:17:00.696Z,99.00
2019-05-25T22:20:04.373Z,98.60
2019-05-25T22:23:06.440Z,98.50
2019-05-25T22:26:07.890Z,98.10
2019-05-25T22:29:09.126Z,98.10
2019-05-25T22:32:10.502Z,98.20
2019-05-25T22:35:11.774Z,98.20
2019-05-25T22:38:14.522Z,98.00
2019-05-25T22:41:19.647Z,97.90
2019-05-25T22:44:19.553Z,97.70
2019-05-25T22:47:20.803Z,97.70
2019-05-25T22:50:22.161Z,97.60
2019-05-25T22:53:23.429Z,97.60
2019-05-25T22:56:25.316Z,97.70
2019-05-25T22:59:26.562Z,98.00
2019-05-25T23:02:27.838Z,98.30
2019-05-25T23:05:29.172Z,98.80
2019-05-25T23:08:30.455Z,98.70
2019-05-25T23:11:32.146Z,99.10
2019-05-25T23:14:33.770Z,99.10
2019-05-25T23:17:35.062Z,99.30
2019-05-25T23:20:36.845Z,99.60
2019-05-25T23:23:39.093Z,99.70
2019-05-25T23:26:40.772Z,99.80
2019-05-25T23:29:42.033Z,99.90
2019-05-25T23:32:43.477Z,99.90
2019-05-25T23:35:44.717Z,99.90
2019-05-25T23:38:46.076Z,99.90
2019-05-25T23:41:47.333Z,99.90
2019-05-25T23:44:48.596Z,99.90
2019-05-25T23:47:50.240Z,99.90
2019-05-25T23:50:51.496Z,99.90
2019-05-25T23:53:53.189Z,99.90
2019-05-25T23:56:54.825Z,99.90
2019-05-25T23:59:56.277Z,99.90
